Terminal Aerodrome Forecast
Issued by NWS

Home | Current Version | Previous Version | Text Only | Print | Product List | Glossary On
Versions: 1 2 3 4 5 6 7 8 9 10 11 12 13 14 15 16 17 18 19
108
FTUS43 KDTX 220749 AAA
TAFMBS
TAF AMD
KMBS 220749Z 2208/2306 00000KT P6SM SCT250
     FM221000 19004KT 4SM BR FEW120 SCT250
     FM221400 22006KT P6SM FEW050
     FM230400 VRB03KT 4SM BR FEW250=

USA.gov is the U.S. government's official web portal to all federal, state and local government web resources and services.